createdAt,value
2023-07-08T00:02:16.075Z,65.43
2023-07-08T00:05:06.195Z,65.03
2023-07-08T00:07:55.447Z,64.88
2023-07-08T00:10:44.901Z,64.80
2023-07-08T00:13:36.389Z,64.76
2023-07-08T00:16:27.048Z,64.31
2023-07-08T00:19:20.488Z,64.13
2023-07-08T00:22:15.721Z,63.89
2023-07-08T00:25:05.573Z,63.83
2023-07-08T00:27:54.858Z,63.71
2023-07-08T00:30:45.880Z,63.47
2023-07-08T00:33:35.174Z,63.42
2023-07-08T00:36:27.087Z,63.10
2023-07-08T00:39:17.064Z,62.90
2023-07-08T00:42:16.316Z,62.52
2023-07-08T00:45:18.285Z,62.09
2023-07-08T00:48:17.965Z,62.13
2023-07-08T00:51:11.637Z,61.79
2023-07-08T00:54:01.119Z,61.25
2023-07-08T00:56:55.323Z,60.61
2023-07-08T00:59:50.792Z,60.36
2023-07-08T01:02:44.467Z,60.19
2023-07-08T01:05:35.934Z,59.86
2023-07-08T01:08:29.898Z,59.47
2023-07-08T01:11:22.806Z,58.90
2023-07-08T01:14:18.681Z,58.59
2023-07-08T01:17:08.041Z,58.21
2023-07-08T01:19:58.225Z,58.02
2023-07-08T01:22:49.005Z,57.89
2023-07-08T01:25:38.463Z,57.54
2023-07-08T01:28:28.435Z,57.70
2023-07-08T01:31:17.998Z,57.07
2023-07-08T01:34:07.858Z,56.83
2023-07-08T01:37:00.137Z,56.56
2023-07-08T01:39:50.848Z,56.45
2023-07-08T01:42:40.138Z,56.32
2023-07-08T01:45:33.796Z,56.31
2023-07-08T01:48:26.544Z,55.84
2023-07-08T01:51:17.961Z,56.01
2023-07-08T01:54:07.457Z,56.18
2023-07-08T01:57:01.896Z,55.76
2023-07-08T01:59:51.422Z,55.84
2023-07-08T02:02:40.827Z,55.90
2023-07-08T02:05:30.237Z,55.93
2023-07-08T02:08:19.643Z,56.00
2023-07-08T02:11:08.881Z,55.77
2023-07-08T02:14:01.569Z,56.09
2023-07-08T02:16:51.290Z,56.07
2023-07-08T02:19:40.571Z,56.21
2023-07-08T02:22:29.912Z,56.21
2023-07-08T02:25:19.461Z,56.48
2023-07-08T02:28:31.856Z,56.38
2023-07-08T02:31:25.960Z,56.60
2023-07-08T02:34:15.357Z,56.84
2023-07-08T02:37:05.033Z,56.89
2023-07-08T02:39:54.672Z,57.11
2023-07-08T02:42:44.153Z,57.36
2023-07-08T02:45:34.028Z,57.26
2023-07-08T02:48:24.857Z,57.66
2023-07-08T02:51:14.152Z,57.32
2023-07-08T02:54:03.540Z,57.71
2023-07-08T02:56:53.757Z,57.96
2023-07-08T02:59:43.101Z,58.25
2023-07-08T03:02:32.480Z,58.40
2023-07-08T03:05:23.250Z,58.48
2023-07-08T03:08:12.662Z,59.32
2023-07-08T03:11:04.841Z,59.20
2023-07-08T03:13:54.184Z,59.49
2023-07-08T03:16:43.683Z,59.52
2023-07-08T03:19:34.560Z,59.54
2023-07-08T03:22:25.317Z,59.58
2023-07-08T03:25:14.720Z,59.98
2023-07-08T03:28:04.250Z,60.02
2023-07-08T03:30:55.620Z,60.28
2023-07-08T03:33:45.225Z,60.43
2023-07-08T03:36:34.646Z,60.74
2023-07-08T03:39:26.848Z,60.72
2023-07-08T03:42:16.180Z,60.71
2023-07-08T03:45:07.399Z,61.04
2023-07-08T03:47:56.876Z,61.50
2023-07-08T03:50:46.464Z,61.86
2023-07-08T03:53:35.800Z,62.14
2023-07-08T03:56:27.090Z,62.51
2023-07-08T03:59:16.418Z,62.99
2023-07-08T04:02:06.456Z,63.22
2023-07-08T04:04:55.823Z,63.54
2023-07-08T04:07:46.103Z,64.40
2023-07-08T04:10:35.456Z,64.37
2023-07-08T04:13:26.302Z,64.57
2023-07-08T04:16:21.158Z,64.91
2023-07-08T04:19:15.495Z,65.50
2023-07-08T04:22:06.878Z,65.54
2023-07-08T04:24:56.439Z,66.02
2023-07-08T04:27:45.885Z,66.29
2023-07-08T04:30:42.144Z,66.41
2023-07-08T04:33:31.671Z,67.07
2023-07-08T04:36:22.825Z,68.46
2023-07-08T04:39:13.047Z,68.53
2023-07-08T04:42:02.289Z,69.98
2023-07-08T04:44:53.115Z,70.46
2023-07-08T04:47:44.420Z,71.67
2023-07-08T04:50:33.783Z,71.62
2023-07-08T04:53:23.302Z,72.44
2023-07-08T04:56:12.667Z,73.76
2023-07-08T04:59:02.858Z,74.33
2023-07-08T05:01:53.493Z,74.11
2023-07-08T05:04:44.321Z,74.94
2023-07-08T05:07:33.677Z,75.50
2023-07-08T05:10:23.949Z,76.47
2023-07-08T05:13:13.204Z,76.27
2023-07-08T05:16:02.682Z,76.33
2023-07-08T05:18:52.139Z,76.66
2023-07-08T05:21:44.328Z,76.95
2023-07-08T05:24:33.645Z,76.91
2023-07-08T05:27:23.151Z,77.10
2023-07-08T05:30:18.314Z,77.87
2023-07-08T05:33:07.576Z,78.04
2023-07-08T05:35:57.329Z,78.05
2023-07-08T05:38:47.984Z,78.73
2023-07-08T05:41:37.331Z,78.41
2023-07-08T05:44:26.702Z,78.07
2023-07-08T05:47:17.156Z,77.83
2023-07-08T05:50:07.668Z,77.73
2023-07-08T05:52:57.028Z,77.72
2023-07-08T05:55:47.955Z,77.41
2023-07-08T05:58:37.464Z,77.39
2023-07-08T06:01:26.872Z,77.18
2023-07-08T06:04:16.738Z,77.02
2023-07-08T06:07:06.677Z,78.24
2023-07-08T06:09:57.190Z,77.85
2023-07-08T06:12:48.355Z,77.69
2023-07-08T06:15:37.754Z,76.58
2023-07-08T06:18:27.293Z,75.34
2023-07-08T06:21:16.610Z,74.75
2023-07-08T06:24:06.988Z,72.27
2023-07-08T06:26:59.611Z,71.07
2023-07-08T06:29:50.687Z,70.44
2023-07-08T06:32:40.242Z,68.52
2023-07-08T06:35:29.588Z,68.70
2023-07-08T06:38:19.215Z,66.06
2023-07-08T06:41:08.662Z,65.29
2023-07-08T06:43:59.251Z,63.76
2023-07-08T06:46:53.061Z,63.40
2023-07-08T06:49:42.684Z,63.19
2023-07-08T06:52:35.394Z,62.52
2023-07-08T06:55:24.843Z,62.59
2023-07-08T06:58:14.323Z,62.11
2023-07-08T07:01:04.096Z,61.58
2023-07-08T07:03:55.232Z,60.94
2023-07-08T07:06:44.903Z,60.75
2023-07-08T07:09:34.424Z,60.83
2023-07-08T07:12:24.299Z,60.29
2023-07-08T07:15:13.674Z,59.67
2023-07-08T07:18:03.177Z,58.49
2023-07-08T07:20:57.591Z,55.76
2023-07-08T07:23:47.050Z,56.02
2023-07-08T07:26:37.760Z,55.77
2023-07-08T07:29:27.449Z,54.49
2023-07-08T07:32:19.094Z,54.17
2023-07-08T07:35:14.008Z,53.79
2023-07-08T07:38:05.787Z,53.96
2023-07-08T07:40:55.934Z,54.15
2023-07-08T07:43:45.254Z,54.36
2023-07-08T07:46:34.615Z,54.01
2023-07-08T07:49:24.124Z,53.64
2023-07-08T07:52:13.420Z,53.42
2023-07-08T07:55:05.270Z,52.43
2023-07-08T07:57:54.668Z,52.33
2023-07-08T08:00:44.256Z,52.24
2023-07-08T08:03:33.588Z,50.95
2023-07-08T08:06:23.096Z,50.85
2023-07-08T08:09:13.848Z,50.44
2023-07-08T08:12:10.046Z,49.23
2023-07-08T08:14:59.481Z,48.11
2023-07-08T08:17:50.667Z,47.05
2023-07-08T08:20:40.885Z,47.00
2023-07-08T08:23:30.815Z,47.36
2023-07-08T08:26:20.292Z,46.47
2023-07-08T08:29:11.023Z,46.26
2023-07-08T08:32:00.420Z,46.88
2023-07-08T08:34:49.924Z,47.46
2023-07-08T08:37:39.257Z,47.20
2023-07-08T08:40:28.645Z,46.54
2023-07-08T08:43:23.289Z,46.56
2023-07-08T08:46:28.762Z,46.52
2023-07-08T08:49:27.922Z,46.60
2023-07-08T08:52:17.577Z,47.05
2023-07-08T08:55:14.292Z,47.31
2023-07-08T08:58:17.672Z,47.69
2023-07-08T09:01:13.253Z,46.98
2023-07-08T09:04:11.382Z,47.09
2023-07-08T09:07:15.321Z,47.13
2023-07-08T09:10:12.261Z,47.04
2023-07-08T09:13:04.848Z,46.98
2023-07-08T09:16:04.576Z,46.18
2023-07-08T09:19:02.245Z,45.39
2023-07-08T09:22:02.524Z,44.72
2023-07-08T09:24:58.436Z,44.02
2023-07-08T09:27:50.057Z,43.42
2023-07-08T09:30:39.392Z,42.87
2023-07-08T09:33:28.749Z,42.92
2023-07-08T09:36:26.181Z,43.10
2023-07-08T09:39:20.149Z,42.94
2023-07-08T09:42:10.509Z,42.32
2023-07-08T09:45:02.752Z,41.71
2023-07-08T09:47:56.172Z,39.55
2023-07-08T09:50:49.777Z,38.60
2023-07-08T09:53:39.966Z,38.54
2023-07-08T09:56:32.786Z,38.02
2023-07-08T09:59:30.317Z,38.05
2023-07-08T10:02:33.678Z,36.02
2023-07-08T10:05:31.237Z,36.44
2023-07-08T10:08:23.905Z,36.42
2023-07-08T10:11:22.029Z,35.11
2023-07-08T10:14:25.334Z,33.75
2023-07-08T10:17:20.763Z,33.75
2023-07-08T10:20:15.833Z,34.29
2023-07-08T10:23:25.730Z,33.58
2023-07-08T10:26:27.314Z,33.73
2023-07-08T10:29:33.207Z,35.23
2023-07-08T10:32:39.258Z,35.49
2023-07-08T10:35:32.764Z,35.57
2023-07-08T10:38:39.559Z,34.89
2023-07-08T10:41:41.694Z,35.16
2023-07-08T10:44:39.054Z,35.48
2023-07-08T10:47:46.165Z,34.93
2023-07-08T10:50:56.028Z,33.65
2023-07-08T10:54:20.441Z,32.59
2023-07-08T10:57:37.973Z,32.27
2023-07-08T11:00:36.691Z,31.25
2023-07-08T11:04:07.915Z,31.15
2023-07-08T11:07:02.576Z,30.77
2023-07-08T11:09:56.728Z,29.99
2023-07-08T11:12:51.020Z,30.04
2023-07-08T11:15:51.408Z,30.29
2023-07-08T11:18:50.357Z,30.96
2023-07-08T11:21:47.322Z,30.86
2023-07-08T11:24:45.519Z,31.38
2023-07-08T11:27:42.811Z,32.61
2023-07-08T11:30:36.004Z,33.05
2023-07-08T11:33:28.724Z,33.48
2023-07-08T11:36:18.923Z,33.35
2023-07-08T11:39:35.700Z,33.06
2023-07-08T11:42:37.014Z,33.01
2023-07-08T11:45:32.939Z,32.77
2023-07-08T11:48:30.451Z,32.26
2023-07-08T11:51:23.165Z,31.47
2023-07-08T11:54:16.747Z,31.35
2023-07-08T11:57:10.443Z,31.26
2023-07-08T12:00:20.285Z,31.24
2023-07-08T12:03:24.029Z,30.69
2023-07-08T12:06:56.087Z,30.33
2023-07-08T12:09:58.979Z,29.54
2023-07-08T12:12:49.670Z,26.94
2023-07-08T12:15:39.249Z,26.86
2023-07-08T12:18:37.115Z,26.49
2023-07-08T12:21:28.908Z,26.65
2023-07-08T12:24:26.569Z,26.30
2023-07-08T12:27:15.960Z,26.70
2023-07-08T12:30:06.053Z,26.88
2023-07-08T12:32:56.602Z,27.28
2023-07-08T12:35:49.391Z,27.77
2023-07-08T12:38:42.916Z,25.99
2023-07-08T12:41:39.502Z,26.02
2023-07-08T12:44:29.252Z,26.46
2023-07-08T12:47:23.164Z,27.33
2023-07-08T12:50:13.614Z,27.89
2023-07-08T12:53:05.891Z,27.99
2023-07-08T12:56:00.364Z,28.71
2023-07-08T12:58:54.888Z,28.50
2023-07-08T13:01:47.313Z,29.41
2023-07-08T13:04:38.889Z,29.14
2023-07-08T13:07:38.873Z,29.58
2023-07-08T13:10:31.654Z,29.84
2023-07-08T13:13:27.137Z,30.08
2023-07-08T13:16:18.719Z,29.96
2023-07-08T13:19:08.418Z,30.00
2023-07-08T13:22:00.188Z,29.59
2023-07-08T13:24:50.780Z,28.13
2023-07-08T13:27:40.312Z,28.05
2023-07-08T13:30:33.593Z,28.13
2023-07-08T13:33:25.679Z,27.75
2023-07-08T13:36:18.889Z,26.09
2023-07-08T13:39:17.953Z,25.90
2023-07-08T13:42:10.433Z,26.22
2023-07-08T13:44:59.888Z,26.26
2023-07-08T13:48:12.075Z,26.77
2023-07-08T13:51:10.264Z,26.84
2023-07-08T13:54:04.525Z,27.40
2023-07-08T13:56:55.974Z,27.91
2023-07-08T13:59:45.465Z,27.13
2023-07-08T14:02:36.370Z,26.08
2023-07-08T14:05:26.374Z,25.93
2023-07-08T14:08:20.127Z,25.53
2023-07-08T14:11:09.706Z,25.21
2023-07-08T14:14:00.444Z,24.77
2023-07-08T14:16:55.693Z,24.80
2023-07-08T14:19:45.057Z,24.64
2023-07-08T14:22:34.318Z,23.91
2023-07-08T14:25:25.399Z,24.27
2023-07-08T14:28:14.790Z,23.75
2023-07-08T14:31:04.780Z,24.43
2023-07-08T14:34:04.382Z,24.49
2023-07-08T14:36:54.212Z,25.11
2023-07-08T14:39:43.961Z,25.67
2023-07-08T14:42:35.004Z,26.07
2023-07-08T14:45:24.360Z,26.06
2023-07-08T14:48:14.207Z,26.16
2023-07-08T14:51:03.942Z,25.80
2023-07-08T14:53:56.376Z,25.80
2023-07-08T14:56:47.985Z,24.99
2023-07-08T14:59:38.994Z,24.27
2023-07-08T15:02:28.583Z,24.82
2023-07-08T15:05:24.217Z,25.00
2023-07-08T15:08:14.717Z,25.62
2023-07-08T15:11:07.373Z,26.12
2023-07-08T15:13:56.899Z,25.67
2023-07-08T15:16:48.038Z,25.36
2023-07-08T15:19:37.895Z,25.79
2023-07-08T15:22:27.454Z,26.42
2023-07-08T15:25:17.992Z,26.57
2023-07-08T15:28:07.834Z,26.78
2023-07-08T15:30:57.528Z,27.14
2023-07-08T15:33:48.368Z,27.28
2023-07-08T15:36:37.810Z,28.11
2023-07-08T15:39:27.222Z,27.86
2023-07-08T15:42:16.972Z,28.40
2023-07-08T15:45:17.878Z,28.86
2023-07-08T15:48:07.909Z,28.62
2023-07-08T15:50:59.149Z,29.55
2023-07-08T15:53:48.915Z,29.14
2023-07-08T15:56:38.402Z,28.63
2023-07-08T15:59:31.860Z,28.74
2023-07-08T16:02:30.021Z,28.47
2023-07-08T16:05:21.196Z,28.42
2023-07-08T16:08:12.938Z,27.77
2023-07-08T16:11:06.532Z,28.16
2023-07-08T16:13:56.006Z,28.78
2023-07-08T16:16:45.919Z,29.26
2023-07-08T16:19:36.596Z,29.58
2023-07-08T16:22:26.239Z,29.65
2023-07-08T16:25:18.859Z,29.53
2023-07-08T16:28:08.963Z,30.18
2023-07-08T16:30:58.895Z,30.20
2023-07-08T16:33:50.837Z,29.60
2023-07-08T16:36:40.614Z,29.71
2023-07-08T16:39:30.019Z,30.15
2023-07-08T16:42:20.769Z,30.03
2023-07-08T16:45:14.280Z,30.22
2023-07-08T16:48:03.955Z,30.80
2023-07-08T16:50:53.649Z,31.25
2023-07-08T16:53:43.446Z,31.56
2023-07-08T16:56:32.832Z,30.98
2023-07-08T16:59:23.652Z,31.63
2023-07-08T17:02:16.049Z,32.08
2023-07-08T17:05:22.577Z,32.17
2023-07-08T17:08:15.880Z,31.48
2023-07-08T17:11:05.252Z,31.35
2023-07-08T17:13:54.734Z,31.27
2023-07-08T17:16:49.329Z,29.10
2023-07-08T17:19:40.464Z,29.30
2023-07-08T17:22:29.720Z,29.88
2023-07-08T17:25:23.106Z,29.89
2023-07-08T17:28:12.488Z,30.07
2023-07-08T17:31:02.684Z,30.76
2023-07-08T17:33:58.940Z,30.91
2023-07-08T17:36:49.201Z,30.97
2023-07-08T17:39:38.637Z,30.88
2023-07-08T17:42:28.027Z,31.28
2023-07-08T17:45:20.891Z,31.56
2023-07-08T17:48:24.345Z,32.19
2023-07-08T17:51:17.046Z,32.05
2023-07-08T17:54:06.717Z,32.48
2023-07-08T17:56:58.100Z,32.60
2023-07-08T17:59:48.477Z,31.24
2023-07-08T18:02:37.920Z,31.47
2023-07-08T18:05:28.939Z,31.86
2023-07-08T18:08:19.695Z,32.35
2023-07-08T18:11:13.477Z,32.77
2023-07-08T18:14:03.305Z,33.52
2023-07-08T18:16:52.809Z,33.86
2023-07-08T18:19:42.668Z,34.15
2023-07-08T18:22:32.417Z,34.58
2023-07-08T18:25:26.809Z,34.99
2023-07-08T18:28:16.235Z,35.56
2023-07-08T18:31:10.956Z,36.10
2023-07-08T18:34:02.408Z,36.57
2023-07-08T18:36:51.861Z,37.33
2023-07-08T18:39:41.409Z,37.50
2023-07-08T18:42:32.611Z,38.05
2023-07-08T18:45:24.296Z,38.24
2023-07-08T18:48:15.393Z,37.96
2023-07-08T18:51:13.030Z,37.89
2023-07-08T18:54:02.380Z,38.18
2023-07-08T18:56:52.039Z,38.35
2023-07-08T18:59:42.894Z,38.27
2023-07-08T19:02:36.186Z,38.41
2023-07-08T19:05:26.037Z,38.37
2023-07-08T19:08:15.507Z,38.36
2023-07-08T19:11:05.922Z,38.64
2023-07-08T19:13:55.442Z,39.05
2023-07-08T19:16:46.943Z,39.54
2023-07-08T19:19:36.434Z,39.67
2023-07-08T19:22:25.973Z,39.52
2023-07-08T19:25:21.064Z,39.35
2023-07-08T19:28:10.879Z,39.23
2023-07-08T19:31:00.278Z,39.27
2023-07-08T19:33:53.317Z,39.23
2023-07-08T19:36:42.838Z,39.44
2023-07-08T19:39:32.172Z,39.22
2023-07-08T19:42:27.612Z,39.36
2023-07-08T19:45:23.723Z,39.56
2023-07-08T19:48:14.280Z,39.34
2023-07-08T19:51:05.273Z,39.16
2023-07-08T19:53:54.810Z,39.31
2023-07-08T19:56:45.076Z,39.89
2023-07-08T19:59:34.476Z,40.08
2023-07-08T20:02:23.877Z,40.48
2023-07-08T20:05:15.045Z,40.80
2023-07-08T20:08:20.339Z,40.99
2023-07-08T20:11:11.241Z,41.20
2023-07-08T20:14:00.850Z,41.59
2023-07-08T20:16:50.436Z,41.68
2023-07-08T20:19:41.317Z,42.06
2023-07-08T20:22:32.819Z,42.22
2023-07-08T20:25:25.846Z,42.54
2023-07-08T20:28:17.623Z,42.31
2023-07-08T20:31:06.997Z,42.46
2023-07-08T20:33:56.804Z,42.52
2023-07-08T20:36:46.303Z,42.61
2023-07-08T20:39:35.748Z,42.75
2023-07-08T20:42:26.625Z,43.11
2023-07-08T20:45:17.880Z,43.14
2023-07-08T20:48:15.932Z,43.51
2023-07-08T20:51:05.721Z,43.69
2023-07-08T20:53:55.896Z,43.72
2023-07-08T20:56:45.342Z,44.14
2023-07-08T20:59:36.075Z,44.38
2023-07-08T21:02:28.226Z,44.60
2023-07-08T21:05:17.822Z,44.71
2023-07-08T21:08:21.972Z,45.06
2023-07-08T21:11:13.324Z,45.35
2023-07-08T21:14:02.915Z,45.64
2023-07-08T21:16:56.665Z,46.04
2023-07-08T21:19:46.975Z,46.02
2023-07-08T21:22:39.637Z,46.79
2023-07-08T21:25:29.070Z,46.82
2023-07-08T21:28:28.067Z,47.59
2023-07-08T21:31:18.295Z,47.32
2023-07-08T21:34:11.454Z,47.77
2023-07-08T21:37:04.017Z,47.95
2023-07-08T21:39:53.560Z,48.08
2023-07-08T21:42:43.014Z,48.36
2023-07-08T21:45:36.529Z,48.30
2023-07-08T21:48:25.903Z,48.35
2023-07-08T21:51:27.325Z,48.39
2023-07-08T21:54:17.217Z,48.27
2023-07-08T21:57:07.510Z,48.33
2023-07-08T21:59:58.928Z,47.72
2023-07-08T22:02:52.270Z,47.64
2023-07-08T22:05:42.408Z,47.13
2023-07-08T22:08:33.276Z,46.72
2023-07-08T22:11:29.842Z,46.33
2023-07-08T22:14:19.109Z,46.08
2023-07-08T22:17:17.167Z,45.96
2023-07-08T22:20:08.386Z,45.91
2023-07-08T22:22:58.630Z,45.44
2023-07-08T22:25:49.565Z,45.33
2023-07-08T22:28:39.153Z,45.34
2023-07-08T22:31:32.311Z,44.45
2023-07-08T22:34:22.022Z,43.83
2023-07-08T22:37:13.351Z,43.77
2023-07-08T22:40:04.650Z,43.77
2023-07-08T22:42:57.997Z,43.00
2023-07-08T22:45:47.606Z,43.35
2023-07-08T22:48:38.395Z,43.29
2023-07-08T22:51:28.917Z,43.62
2023-07-08T22:54:19.654Z,43.74
2023-07-08T22:57:10.061Z,43.75
2023-07-08T23:00:01.391Z,43.83
2023-07-08T23:02:51.481Z,43.86
2023-07-08T23:05:42.947Z,44.27
2023-07-08T23:08:34.938Z,44.50
2023-07-08T23:11:24.571Z,43.76
2023-07-08T23:14:14.341Z,43.71
2023-07-08T23:17:09.897Z,43.52
2023-07-08T23:19:59.363Z,43.50
2023-07-08T23:22:50.064Z,43.54
2023-07-08T23:25:39.607Z,43.32
2023-07-08T23:28:29.491Z,43.44
2023-07-08T23:31:19.162Z,43.48
2023-07-08T23:34:11.017Z,43.44
2023-07-08T23:37:03.486Z,43.46
2023-07-08T23:39:53.967Z,43.44
2023-07-08T23:42:44.373Z,43.20
2023-07-08T23:45:33.869Z,43.32
2023-07-08T23:48:23.284Z,43.26
2023-07-08T23:51:14.017Z,43.49
2023-07-08T23:54:03.360Z,43.12
2023-07-08T23:56:55.218Z,43.22
2023-07-08T23:59:50.269Z,43.16
